Terminal Aerodrome Forecast
Issued by NWS

Home | Current Version | Previous Version | Text Only | Print | Product List | Glossary On
Versions: 1 2 3 4 5 6 7 8 9 10 11 12 13 14 15 16 17 18
000
FTAK31 PAJN 301210 AAA
TAFAKT
TAF AMD
PAKT 301210Z 3012/3112 VRB03KT P6SM -RA SCT010 BKN035 OVC060
     FM301600 14009KT 5SM -RA BR BKN012 OVC035
     FM302200 13012KT 2SM -RA BR OVC012
     FM310300 14010G20KT 5SM -RA BR OVC012
     FM310800 14012G20KT 4SM -RA BR OVC007
      AMD LTD TO CLD VIS AND WIND 3012/3015=

USA.gov is the U.S. government's official web portal to all federal, state and local government web resources and services.